Stations météo

réclame
Mon MeteoGroup
St. James's Park, Grande-Bretagne (3770): Température de l'air & dewpoint: 11.02.2019 14:00:00 - 17.02.2019 14:00:00 (GMT)St. James's Park, Grande-Bretagne (3770): Température de l'air -20cm & Température de l'air -100cm: 11.02.2019 14:00:00 - 17.02.2019 14:00:00 (GMT)St. James's Park, Grande-Bretagne (3770): Quantités de précipitations: 11.02.2019 14:00:00 - 17.02.2019 14:00:00 (GMT)
Date & Time tt [°C] td [°C] tt -20cm [°C] tt -100cm [°C] rr [mm]
17.02.2019 14:00:00 14,8 7,4 - - 0,0
17.02.2019 13:00:00 14,3 6,2 - - 0,0
17.02.2019 12:00:00 14,0 5,8 - - -
17.02.2019 11:00:00 12,3 5,3 - - -
17.02.2019 10:00:00 9,9 4,5 - - 0,0
17.02.2019 09:00:00 7,2 5,3 6,2 7,2 0,0
17.02.2019 08:00:00 6,5 5,2 - - 0,0
17.02.2019 07:00:00 6,4 5,6 - - 0,0
17.02.2019 06:00:00 5,4 5,0 - - 0,0
17.02.2019 05:00:00 5,6 5,2 - - 0,0
17.02.2019 04:00:00 5,9 5,5 - - 0,0
17.02.2019 03:00:00 6,5 6,0 - - 0,0
17.02.2019 02:00:00 6,4 5,9 - - 0,0
17.02.2019 01:00:00 7,3 6,5 - - 0,0
17.02.2019 00:00:00 8,4 7,2 - - 0,0
16.02.2019 23:00:00 9,5 7,9 - - 0,0
16.02.2019 22:00:00 10,5 8,7 - - 0,0
16.02.2019 21:00:00 10,7 9,0 - - 0,0
16.02.2019 20:00:00 10,8 9,1 - - 0,0
16.02.2019 19:00:00 11,0 9,4 - - 0,0
16.02.2019 18:00:00 11,4 9,5 - - 0,0
16.02.2019 17:00:00 11,8 9,4 - - 0,0
16.02.2019 16:00:00 12,1 9,6 - - 0,0
16.02.2019 15:00:00 12,3 9,7 - - 0,0
16.02.2019 14:00:00 12,3 9,7 - - 0,0
16.02.2019 13:00:00 12,1 9,6 - - 0,0
16.02.2019 12:00:00 11,7 9,5 - - 0,0
16.02.2019 11:00:00 11,0 9,2 - - 0,0
16.02.2019 10:00:00 10,6 8,9 - - 0,0
16.02.2019 09:00:00 9,4 8,0 5,7 7,2 0,0
16.02.2019 08:00:00 8,9 7,4 - - 0,0
16.02.2019 07:00:00 8,0 6,9 - - 0,0
16.02.2019 06:00:00 6,5 5,7 - - 0,0
16.02.2019 05:00:00 4,8 4,2 - - 0,0
16.02.2019 04:00:00 4,7 4,0 - - 0,0
16.02.2019 03:00:00 4,9 3,7 - - 0,0
16.02.2019 02:00:00 5,8 3,6 - - 0,0
16.02.2019 01:00:00 5,2 2,9 - - 0,0
16.02.2019 00:00:00 5,5 2,7 - - 0,0
15.02.2019 23:00:00 6,0 2,1 - - 0,0
15.02.2019 22:00:00 7,1 2,7 - - 0,0
15.02.2019 21:00:00 7,1 3,1 - - 0,0
15.02.2019 20:00:00 9,3 3,7 - - 0,0
15.02.2019 19:00:00 10,2 2,8 - - 0,0
15.02.2019 18:00:00 10,8 4,1 - - 0,0
15.02.2019 17:00:00 12,2 3,3 - - 0,0
15.02.2019 16:00:00 14,5 4,1 - - 0,0
15.02.2019 15:00:00 14,2 4,3 - - 0,0
15.02.2019 14:00:00 14,9 3,7 - - 0,0
15.02.2019 13:00:00 14,1 4,8 - - 0,0
15.02.2019 12:00:00 12,5 4,6 - - 0,0
15.02.2019 11:00:00 10,9 5,0 - - 0,0
15.02.2019 10:00:00 7,8 6,0 - - 0,0
15.02.2019 09:00:00 4,5 4,4 5,7 7,4 0,2
15.02.2019 08:00:00 1,9 1,6 - - 0,0
15.02.2019 07:00:00 1,7 1,3 - - 0,0
15.02.2019 06:00:00 2,4 2,0 - - 0,0
15.02.2019 05:00:00 2,5 2,1 - - 0,0
15.02.2019 04:00:00 2,9 2,3 - - 0,0
15.02.2019 03:00:00 3,6 2,8 - - 0,0
15.02.2019 02:00:00 4,2 3,0 - - 0,0
15.02.2019 01:00:00 4,9 2,9 - - 0,0
15.02.2019 00:00:00 5,3 2,4 - - 0,0
14.02.2019 23:00:00 5,4 2,4 - - 0,0
14.02.2019 22:00:00 5,4 2,8 - - 0,0
14.02.2019 21:00:00 7,0 3,0 - - 0,0
14.02.2019 20:00:00 8,4 2,8 - - 0,0
14.02.2019 19:00:00 9,2 3,2 - - 0,0
14.02.2019 18:00:00 10,6 3,1 - - 0,0
14.02.2019 17:00:00 12,1 2,8 - - 0,0
14.02.2019 16:00:00 13,4 3,9 - - 0,0
14.02.2019 15:00:00 13,7 3,8 - - 0,0
14.02.2019 14:00:00 14,6 2,8 - - 0,0
14.02.2019 13:00:00 12,5 5,1 - - 0,0
14.02.2019 12:00:00 11,1 3,8 - - 0,0
14.02.2019 11:00:00 9,9 4,7 - - 0,0
14.02.2019 10:00:00 6,0 5,6 - - 0,0
14.02.2019 09:00:00 3,7 3,6 6,2 7,4 0,0
14.02.2019 08:00:00 2,6 2,4 - - 0,0
14.02.2019 07:00:00 2,6 2,2 - - 0,0
14.02.2019 06:00:00 2,4 1,9 - - 0,0
14.02.2019 05:00:00 2,9 2,3 - - 0,0
14.02.2019 04:00:00 3,9 3,2 - - 0,0
14.02.2019 03:00:00 3,4 2,8 - - 0,0
14.02.2019 02:00:00 3,8 3,2 - - 0,0
14.02.2019 01:00:00 3,6 2,8 - - 0,0
14.02.2019 00:00:00 4,5 3,6 - - 0,0
13.02.2019 23:00:00 4,5 3,2 - - 0,0
13.02.2019 22:00:00 5,0 3,5 - - 0,0
13.02.2019 21:00:00 5,7 3,7 - - 0,0
13.02.2019 20:00:00 7,0 4,5 - - 0,0
13.02.2019 19:00:00 7,9 4,9 - - 0,0
13.02.2019 18:00:00 8,7 4,0 - - 0,0
13.02.2019 17:00:00 10,0 4,6 - - 0,0
13.02.2019 16:00:00 11,1 4,9 - - 0,0
13.02.2019 15:00:00 11,5 5,0 - - 0,0
13.02.2019 14:00:00 11,9 6,1 - - 0,0
13.02.2019 13:00:00 10,9 6,4 - - 0,0
13.02.2019 12:00:00 10,2 6,3 - - 0,0
13.02.2019 11:00:00 9,1 6,0 - - 0,0
13.02.2019 10:00:00 8,3 6,1 - - 0,0
13.02.2019 09:00:00 7,4 5,6 6,2 7,2 0,0
13.02.2019 08:00:00 7,0 5,3 - - 0,0
13.02.2019 07:00:00 7,1 5,3 - - 0,0
13.02.2019 06:00:00 8,1 5,8 - - 0,0
13.02.2019 05:00:00 8,2 5,9 - - 0,0
13.02.2019 04:00:00 8,1 6,0 - - 0,0
13.02.2019 03:00:00 6,6 5,4 - - 0,0
13.02.2019 02:00:00 6,7 5,2 - - 0,0
13.02.2019 01:00:00 6,9 5,7 - - 0,0
13.02.2019 00:00:00 7,4 5,8 - - 0,0
12.02.2019 23:00:00 7,1 5,6 - - 0,0
12.02.2019 22:00:00 7,9 6,0 - - 0,0
12.02.2019 21:00:00 8,3 5,5 - - 0,0
12.02.2019 20:00:00 9,2 5,5 - - 0,0
12.02.2019 19:00:00 9,6 5,5 - - 0,0
12.02.2019 18:00:00 10,4 5,3 - - 0,0
12.02.2019 17:00:00 10,5 4,8 - - 0,0
12.02.2019 16:00:00 10,9 4,8 - - 0,0
12.02.2019 15:00:00 11,0 4,7 - - 0,0
12.02.2019 14:00:00 11,4 4,9 - - 0,0
12.02.2019 13:00:00 10,8 6,0 - - 0,0
12.02.2019 12:00:00 9,8 6,0 - - 0,0
12.02.2019 11:00:00 7,9 5,8 - - 0,0
12.02.2019 10:00:00 6,2 4,9 - - 0,0
12.02.2019 09:00:00 5,7 3,9 5,9 7,4 0,0
12.02.2019 08:00:00 4,6 3,5 - - 0,0
12.02.2019 07:00:00 3,5 1,8 - - 0,0
12.02.2019 06:00:00 3,2 1,2 - - 0,0
12.02.2019 05:00:00 3,2 0,7 - - 0,0
12.02.2019 04:00:00 4,2 1,3 - - 0,0
12.02.2019 03:00:00 3,6 1,7 - - 0,0
12.02.2019 02:00:00 3,5 1,3 - - 0,0
12.02.2019 01:00:00 3,8 1,1 - - 0,0
12.02.2019 00:00:00 4,5 1,6 - - 0,0
11.02.2019 23:00:00 5,3 1,6 - - 0,0
11.02.2019 22:00:00 6,6 2,1 - - 0,0
11.02.2019 21:00:00 7,5 2,2 - - 0,0
11.02.2019 20:00:00 7,5 1,5 - - 0,0
11.02.2019 19:00:00 7,0 1,6 - - 0,0
11.02.2019 18:00:00 8,3 1,1 - - 0,0
11.02.2019 17:00:00 8,3 1,5 - - 0,0
11.02.2019 16:00:00 8,9 1,4 - - 0,0
11.02.2019 15:00:00 8,8 1,2 - - 0,0
11.02.2019 14:00:00 8,7 1,3 - - 0,0

tt = Température de l'air
td = dewpoint
tt -20cm = Température de l'air -20cm
tt -100cm = Température de l'air -100cm
rr = Quantités de précipitations

stations d'obs. à proximité